Terminal Aerodrome Forecast
Issued by NWS Sioux Falls, SD

Home | Current Version | Previous Version | Graphics & Text | Print | Product List | Glossary Off
Versions: 1 2 3 4 5 6 7 8 9 10 11 12 13 14 15

511
FTUS43 KFSD 210533
TAFFSD
TAF
KFSD 210533Z 2106/2206 13006KT 1SM -RA BR OVC003
     FM211000 12004KT 1/4SM FG OVC003
     FM211500 00000KT 3/4SM BR OVC003
     FM211700 31004KT 1SM BR OVC003
     FM211900 27006KT 5SM BR OVC015
     FM212100 28007KT P6SM OVC015
     FM220200 30006KT P6SM OVC035=

USA.gov is the U.S. government's official web portal to all federal, state and local government web resources and services.